sensor_id;sensor_type;location;lat;lon;timestamp;P1;durP1;ratioP1;P2;durP2;ratioP2
14760;SDS011;7472;45.396;5.272;2023-07-31T00:01:25;3.80;;;1.50;;
14760;SDS011;7472;45.396;5.272;2023-07-31T00:03:52;4.22;;;1.48;;
14760;SDS011;7472;45.396;5.272;2023-07-31T00:06:21;4.75;;;1.60;;
14760;SDS011;7472;45.396;5.272;2023-07-31T00:08:48;3.83;;;1.52;;
14760;SDS011;7472;45.396;5.272;2023-07-31T00:11:16;4.30;;;2.00;;
14760;SDS011;7472;45.396;5.272;2023-07-31T00:13:43;5.97;;;1.83;;
14760;SDS011;7472;45.396;5.272;2023-07-31T00:16:10;3.38;;;1.50;;
14760;SDS011;7472;45.396;5.272;2023-07-31T00:18:38;4.90;;;2.15;;
14760;SDS011;7472;45.396;5.272;2023-07-31T00:21:05;4.65;;;2.25;;
14760;SDS011;7472;45.396;5.272;2023-07-31T00:23:34;2.75;;;1.60;;
14760;SDS011;7472;45.396;5.272;2023-07-31T00:26:01;3.15;;;1.70;;
14760;SDS011;7472;45.396;5.272;2023-07-31T00:28:28;4.20;;;1.50;;
14760;SDS011;7472;45.396;5.272;2023-07-31T00:30:56;4.65;;;1.55;;
14760;SDS011;7472;45.396;5.272;2023-07-31T00:33:23;4.15;;;1.77;;
14760;SDS011;7472;45.396;5.272;2023-07-31T00:35:50;4.50;;;1.77;;
14760;SDS011;7472;45.396;5.272;2023-07-31T00:38:18;5.20;;;1.88;;
14760;SDS011;7472;45.396;5.272;2023-07-31T00:40:47;4.45;;;1.90;;
14760;SDS011;7472;45.396;5.272;2023-07-31T00:43:14;3.92;;;1.80;;
14760;SDS011;7472;45.396;5.272;2023-07-31T00:45:41;3.53;;;1.60;;
14760;SDS011;7472;45.396;5.272;2023-07-31T00:48:09;4.53;;;2.03;;
14760;SDS011;7472;45.396;5.272;2023-07-31T00:50:36;5.15;;;1.92;;
14760;SDS011;7472;45.396;5.272;2023-07-31T00:53:04;4.70;;;2.25;;
14760;SDS011;7472;45.396;5.272;2023-07-31T00:55:32;3.53;;;1.65;;
14760;SDS011;7472;45.396;5.272;2023-07-31T00:58:01;4.45;;;1.70;;
14760;SDS011;7472;45.396;5.272;2023-07-31T01:00:28;4.72;;;1.77;;
14760;SDS011;7472;45.396;5.272;2023-07-31T01:02:56;2.15;;;1.40;;
14760;SDS011;7472;45.396;5.272;2023-07-31T01:05:24;4.13;;;1.85;;
14760;SDS011;7472;45.396;5.272;2023-07-31T01:07:55;5.13;;;2.22;;
14760;SDS011;7472;45.396;5.272;2023-07-31T01:10:25;6.63;;;2.05;;
14760;SDS011;7472;45.396;5.272;2023-07-31T01:12:53;5.28;;;2.00;;
14760;SDS011;7472;45.396;5.272;2023-07-31T01:15:22;4.03;;;1.90;;
14760;SDS011;7472;45.396;5.272;2023-07-31T01:17:49;5.22;;;1.60;;
14760;SDS011;7472;45.396;5.272;2023-07-31T01:20:17;4.60;;;1.88;;
14760;SDS011;7472;45.396;5.272;2023-07-31T01:22:58;3.70;;;2.20;;
14760;SDS011;7472;45.396;5.272;2023-07-31T01:25:32;3.53;;;2.05;;
14760;SDS011;7472;45.396;5.272;2023-07-31T01:28:05;3.65;;;1.63;;
14760;SDS011;7472;45.396;5.272;2023-07-31T01:30:37;5.85;;;2.00;;
14760;SDS011;7472;45.396;5.272;2023-07-31T01:33:05;3.10;;;1.52;;
14760;SDS011;7472;45.396;5.272;2023-07-31T01:35:33;7.70;;;1.70;;
14760;SDS011;7472;45.396;5.272;2023-07-31T01:38:01;4.72;;;1.58;;
14760;SDS011;7472;45.396;5.272;2023-07-31T01:40:28;6.50;;;1.92;;
14760;SDS011;7472;45.396;5.272;2023-07-31T01:42:56;3.55;;;1.90;;
14760;SDS011;7472;45.396;5.272;2023-07-31T01:45:26;3.10;;;1.77;;
14760;SDS011;7472;45.396;5.272;2023-07-31T01:47:53;4.25;;;1.75;;
14760;SDS011;7472;45.396;5.272;2023-07-31T01:50:20;4.82;;;1.73;;
14760;SDS011;7472;45.396;5.272;2023-07-31T01:52:48;1.83;;;1.40;;
14760;SDS011;7472;45.396;5.272;2023-07-31T01:55:15;4.55;;;2.20;;
14760;SDS011;7472;45.396;5.272;2023-07-31T01:57:43;5.68;;;2.20;;
14760;SDS011;7472;45.396;5.272;2023-07-31T02:00:10;4.20;;;1.65;;
14760;SDS011;7472;45.396;5.272;2023-07-31T02:02:39;4.82;;;1.75;;
14760;SDS011;7472;45.396;5.272;2023-07-31T02:05:07;6.47;;;2.15;;
14760;SDS011;7472;45.396;5.272;2023-07-31T02:07:34;6.05;;;1.95;;
14760;SDS011;7472;45.396;5.272;2023-07-31T02:10:01;4.50;;;1.90;;
14760;SDS011;7472;45.396;5.272;2023-07-31T02:12:29;3.50;;;1.77;;
14760;SDS011;7472;45.396;5.272;2023-07-31T02:14:57;4.53;;;2.13;;
14760;SDS011;7472;45.396;5.272;2023-07-31T02:17:24;3.63;;;2.15;;
14760;SDS011;7472;45.396;5.272;2023-07-31T02:19:53;5.10;;;2.38;;
14760;SDS011;7472;45.396;5.272;2023-07-31T02:22:20;4.30;;;1.85;;
14760;SDS011;7472;45.396;5.272;2023-07-31T02:24:48;4.40;;;1.77;;
14760;SDS011;7472;45.396;5.272;2023-07-31T02:27:15;3.90;;;1.83;;
14760;SDS011;7472;45.396;5.272;2023-07-31T02:29:42;4.85;;;2.05;;
14760;SDS011;7472;45.396;5.272;2023-07-31T02:32:10;3.40;;;1.50;;
14760;SDS011;7472;45.396;5.272;2023-07-31T02:34:36;3.17;;;1.63;;
14760;SDS011;7472;45.396;5.272;2023-07-31T02:37:05;4.57;;;2.03;;
14760;SDS011;7472;45.396;5.272;2023-07-31T02:39:33;7.28;;;1.88;;
14760;SDS011;7472;45.396;5.272;2023-07-31T02:42:00;5.50;;;2.65;;
14760;SDS011;7472;45.396;5.272;2023-07-31T02:44:27;2.88;;;1.67;;
14760;SDS011;7472;45.396;5.272;2023-07-31T02:46:55;4.47;;;1.80;;
14760;SDS011;7472;45.396;5.272;2023-07-31T02:49:22;2.83;;;1.92;;
14760;SDS011;7472;45.396;5.272;2023-07-31T02:51:49;5.70;;;1.70;;
14760;SDS011;7472;45.396;5.272;2023-07-31T02:54:18;2.70;;;1.90;;
14760;SDS011;7472;45.396;5.272;2023-07-31T02:56:46;2.90;;;1.83;;
14760;SDS011;7472;45.396;5.272;2023-07-31T02:59:14;2.88;;;1.60;;
14760;SDS011;7472;45.396;5.272;2023-07-31T03:01:41;5.03;;;1.92;;
14760;SDS011;7472;45.396;5.272;2023-07-31T03:04:09;4.50;;;1.90;;
14760;SDS011;7472;45.396;5.272;2023-07-31T03:06:36;4.00;;;2.08;;
14760;SDS011;7472;45.396;5.272;2023-07-31T03:09:03;3.95;;;1.65;;
14760;SDS011;7472;45.396;5.272;2023-07-31T03:11:32;4.13;;;1.85;;
14760;SDS011;7472;45.396;5.272;2023-07-31T03:14:00;3.40;;;1.85;;
14760;SDS011;7472;45.396;5.272;2023-07-31T03:16:27;6.88;;;2.45;;
14760;SDS011;7472;45.396;5.272;2023-07-31T03:18:54;4.03;;;1.83;;
14760;SDS011;7472;45.396;5.272;2023-07-31T03:21:22;3.53;;;1.73;;
14760;SDS011;7472;45.396;5.272;2023-07-31T03:23:49;3.10;;;1.90;;
14760;SDS011;7472;45.396;5.272;2023-07-31T03:26:16;7.13;;;1.90;;
14760;SDS011;7472;45.396;5.272;2023-07-31T03:28:45;3.92;;;2.47;;
14760;SDS011;7472;45.396;5.272;2023-07-31T03:31:12;4.03;;;1.80;;
14760;SDS011;7472;45.396;5.272;2023-07-31T03:33:40;4.78;;;1.75;;
14760;SDS011;7472;45.396;5.272;2023-07-31T03:36:07;4.00;;;2.22;;
14760;SDS011;7472;45.396;5.272;2023-07-31T03:38:35;3.90;;;1.63;;
14760;SDS011;7472;45.396;5.272;2023-07-31T03:41:02;5.40;;;2.08;;
14760;SDS011;7472;45.396;5.272;2023-07-31T03:43:31;4.40;;;1.95;;
14760;SDS011;7472;45.396;5.272;2023-07-31T03:46:00;3.80;;;1.95;;
14760;SDS011;7472;45.396;5.272;2023-07-31T03:48:28;5.10;;;2.20;;
14760;SDS011;7472;45.396;5.272;2023-07-31T03:50:56;6.93;;;2.30;;
14760;SDS011;7472;45.396;5.272;2023-07-31T03:53:23;6.90;;;2.08;;
14760;SDS011;7472;45.396;5.272;2023-07-31T03:55:50;5.90;;;2.65;;
14760;SDS011;7472;45.396;5.272;2023-07-31T03:58:18;5.10;;;2.17;;
14760;SDS011;7472;45.396;5.272;2023-07-31T04:00:45;7.45;;;2.17;;
14760;SDS011;7472;45.396;5.272;2023-07-31T04:03:14;4.00;;;1.92;;
14760;SDS011;7472;45.396;5.272;2023-07-31T04:05:41;3.95;;;2.00;;
14760;SDS011;7472;45.396;5.272;2023-07-31T04:08:09;5.15;;;2.05;;
14760;SDS011;7472;45.396;5.272;2023-07-31T04:10:36;3.38;;;1.52;;
14760;SDS011;7472;45.396;5.272;2023-07-31T04:13:03;3.42;;;1.70;;
14760;SDS011;7472;45.396;5.272;2023-07-31T04:15:31;4.10;;;1.90;;
14760;SDS011;7472;45.396;5.272;2023-07-31T04:17:58;3.60;;;1.95;;
14760;SDS011;7472;45.396;5.272;2023-07-31T04:20:27;4.25;;;2.00;;
14760;SDS011;7472;45.396;5.272;2023-07-31T04:22:54;3.72;;;2.30;;
14760;SDS011;7472;45.396;5.272;2023-07-31T04:25:22;7.03;;;2.30;;
14760;SDS011;7472;45.396;5.272;2023-07-31T04:27:49;5.57;;;1.80;;
14760;SDS011;7472;45.396;5.272;2023-07-31T04:30:16;8.20;;;3.35;;
14760;SDS011;7472;45.396;5.272;2023-07-31T04:32:44;6.82;;;2.15;;
14760;SDS011;7472;45.396;5.272;2023-07-31T04:35:11;5.10;;;1.70;;
14760;SDS011;7472;45.396;5.272;2023-07-31T04:37:40;6.30;;;1.80;;
14760;SDS011;7472;45.396;5.272;2023-07-31T04:40:08;4.95;;;1.60;;
14760;SDS011;7472;45.396;5.272;2023-07-31T04:42:35;2.92;;;1.73;;
14760;SDS011;7472;45.396;5.272;2023-07-31T04:45:03;5.32;;;1.85;;
14760;SDS011;7472;45.396;5.272;2023-07-31T04:47:30;4.40;;;2.15;;
14760;SDS011;7472;45.396;5.272;2023-07-31T04:49:58;9.00;;;1.98;;
14760;SDS011;7472;45.396;5.272;2023-07-31T04:52:25;8.23;;;2.60;;
14760;SDS011;7472;45.396;5.272;2023-07-31T04:54:54;5.32;;;1.58;;
14760;SDS011;7472;45.396;5.272;2023-07-31T04:57:21;5.10;;;1.88;;
14760;SDS011;7472;45.396;5.272;2023-07-31T04:59:49;4.38;;;2.00;;
14760;SDS011;7472;45.396;5.272;2023-07-31T05:02:16;4.35;;;1.80;;
14760;SDS011;7472;45.396;5.272;2023-07-31T05:04:43;8.75;;;2.28;;
14760;SDS011;7472;45.396;5.272;2023-07-31T05:07:11;6.97;;;2.10;;
14760;SDS011;7472;45.396;5.272;2023-07-31T05:09:38;4.00;;;1.85;;
14760;SDS011;7472;45.396;5.272;2023-07-31T05:12:07;4.10;;;2.08;;
14760;SDS011;7472;45.396;5.272;2023-07-31T05:14:35;5.80;;;2.00;;
14760;SDS011;7472;45.396;5.272;2023-07-31T05:17:02;4.85;;;2.10;;
14760;SDS011;7472;45.396;5.272;2023-07-31T05:19:30;5.20;;;2.05;;
14760;SDS011;7472;45.396;5.272;2023-07-31T05:21:57;3.83;;;2.10;;
14760;SDS011;7472;45.396;5.272;2023-07-31T05:24:24;6.05;;;1.98;;
14760;SDS011;7472;45.396;5.272;2023-07-31T05:26:52;4.43;;;2.45;;
14760;SDS011;7472;45.396;5.272;2023-07-31T05:29:21;11.35;;;2.72;;
14760;SDS011;7472;45.396;5.272;2023-07-31T05:31:48;4.28;;;1.67;;
14760;SDS011;7472;45.396;5.272;2023-07-31T05:34:15;2.78;;;1.75;;
14760;SDS011;7472;45.396;5.272;2023-07-31T05:36:43;4.15;;;1.83;;
14760;SDS011;7472;45.396;5.272;2023-07-31T05:39:10;4.55;;;2.05;;
14760;SDS011;7472;45.396;5.272;2023-07-31T05:41:37;4.75;;;1.80;;
14760;SDS011;7472;45.396;5.272;2023-07-31T05:44:05;3.65;;;1.70;;
14760;SDS011;7472;45.396;5.272;2023-07-31T05:46:34;5.47;;;2.08;;
14760;SDS011;7472;45.396;5.272;2023-07-31T05:49:01;4.45;;;1.70;;
14760;SDS011;7472;45.396;5.272;2023-07-31T05:51:28;3.47;;;1.80;;
14760;SDS011;7472;45.396;5.272;2023-07-31T05:53:56;5.80;;;2.08;;
14760;SDS011;7472;45.396;5.272;2023-07-31T05:56:23;6.28;;;1.85;;
14760;SDS011;7472;45.396;5.272;2023-07-31T05:58:52;4.60;;;1.60;;
14760;SDS011;7472;45.396;5.272;2023-07-31T06:01:19;5.13;;;1.90;;
14760;SDS011;7472;45.396;5.272;2023-07-31T06:03:48;4.68;;;1.67;;
14760;SDS011;7472;45.396;5.272;2023-07-31T06:06:16;3.03;;;1.52;;
14760;SDS011;7472;45.396;5.272;2023-07-31T06:08:44;3.53;;;1.90;;
14760;SDS011;7472;45.396;5.272;2023-07-31T06:11:11;6.70;;;2.15;;
14760;SDS011;7472;45.396;5.272;2023-07-31T06:13:38;4.35;;;2.00;;
14760;SDS011;7472;45.396;5.272;2023-07-31T06:16:06;5.88;;;2.03;;
14760;SDS011;7472;45.396;5.272;2023-07-31T06:18:33;5.63;;;2.30;;
14760;SDS011;7472;45.396;5.272;2023-07-31T06:21:02;55.03;;;8.32;;
14760;SDS011;7472;45.396;5.272;2023-07-31T06:23:29;43.58;;;8.82;;
14760;SDS011;7472;45.396;5.272;2023-07-31T06:25:57;26.42;;;5.50;;
14760;SDS011;7472;45.396;5.272;2023-07-31T06:28:27;15.52;;;3.22;;
14760;SDS011;7472;45.396;5.272;2023-07-31T06:30:55;8.15;;;3.00;;
14760;SDS011;7472;45.396;5.272;2023-07-31T06:33:22;7.82;;;2.85;;
14760;SDS011;7472;45.396;5.272;2023-07-31T06:35:50;8.25;;;2.55;;
14760;SDS011;7472;45.396;5.272;2023-07-31T06:38:21;4.47;;;2.33;;
14760;SDS011;7472;45.396;5.272;2023-07-31T06:40:49;4.60;;;2.50;;
14760;SDS011;7472;45.396;5.272;2023-07-31T06:43:16;5.72;;;2.15;;
14760;SDS011;7472;45.396;5.272;2023-07-31T06:45:43;2.90;;;1.75;;
14760;SDS011;7472;45.396;5.272;2023-07-31T06:48:11;4.57;;;1.83;;
14760;SDS011;7472;45.396;5.272;2023-07-31T06:50:39;3.88;;;1.50;;
14760;SDS011;7472;45.396;5.272;2023-07-31T06:53:06;4.57;;;2.13;;
14760;SDS011;7472;45.396;5.272;2023-07-31T06:55:35;5.95;;;1.80;;
14760;SDS011;7472;45.396;5.272;2023-07-31T06:58:02;4.57;;;1.92;;
14760;SDS011;7472;45.396;5.272;2023-07-31T07:00:30;6.18;;;1.55;;
14760;SDS011;7472;45.396;5.272;2023-07-31T07:02:57;4.97;;;2.45;;
14760;SDS011;7472;45.396;5.272;2023-07-31T07:05:25;5.05;;;2.05;;
14760;SDS011;7472;45.396;5.272;2023-07-31T07:07:52;5.45;;;2.25;;
14760;SDS011;7472;45.396;5.272;2023-07-31T07:10:20;4.75;;;2.10;;
14760;SDS011;7472;45.396;5.272;2023-07-31T07:12:49;4.40;;;1.90;;
14760;SDS011;7472;45.396;5.272;2023-07-31T07:15:16;3.05;;;1.77;;
14760;SDS011;7472;45.396;5.272;2023-07-31T07:17:43;6.60;;;2.42;;
14760;SDS011;7472;45.396;5.272;2023-07-31T07:20:11;3.75;;;2.05;;
14760;SDS011;7472;45.396;5.272;2023-07-31T07:22:38;9.18;;;2.40;;
14760;SDS011;7472;45.396;5.272;2023-07-31T07:25:08;6.43;;;2.20;;
14760;SDS011;7472;45.396;5.272;2023-07-31T07:27:36;6.85;;;2.17;;
14760;SDS011;7472;45.396;5.272;2023-07-31T07:30:06;6.45;;;1.90;;
14760;SDS011;7472;45.396;5.272;2023-07-31T07:32:34;3.53;;;1.77;;
14760;SDS011;7472;45.396;5.272;2023-07-31T07:35:01;4.15;;;1.55;;
14760;SDS011;7472;45.396;5.272;2023-07-31T07:37:28;5.75;;;2.20;;
14760;SDS011;7472;45.396;5.272;2023-07-31T07:39:56;7.55;;;2.28;;
14760;SDS011;7472;45.396;5.272;2023-07-31T07:42:23;3.97;;;1.83;;
14760;SDS011;7472;45.396;5.272;2023-07-31T07:44:51;5.53;;;1.40;;
14760;SDS011;7472;45.396;5.272;2023-07-31T07:47:19;4.60;;;1.50;;
14760;SDS011;7472;45.396;5.272;2023-07-31T07:49:47;3.97;;;1.83;;
14760;SDS011;7472;45.396;5.272;2023-07-31T07:52:14;3.67;;;1.63;;
14760;SDS011;7472;45.396;5.272;2023-07-31T07:54:42;4.50;;;1.70;;
14760;SDS011;7472;45.396;5.272;2023-07-31T07:57:09;6.90;;;1.83;;
14760;SDS011;7472;45.396;5.272;2023-07-31T07:59:37;4.22;;;1.73;;
14760;SDS011;7472;45.396;5.272;2023-07-31T08:02:05;8.27;;;2.20;;
14760;SDS011;7472;45.396;5.272;2023-07-31T08:04:34;3.90;;;1.35;;
14760;SDS011;7472;45.396;5.272;2023-07-31T08:07:01;4.50;;;1.55;;
14760;SDS011;7472;45.396;5.272;2023-07-31T08:09:29;4.13;;;2.05;;
14760;SDS011;7472;45.396;5.272;2023-07-31T08:11:56;2.88;;;1.60;;
14760;SDS011;7472;45.396;5.272;2023-07-31T08:14:27;3.13;;;1.55;;
14760;SDS011;7472;45.396;5.272;2023-07-31T08:16:55;6.57;;;2.15;;
14760;SDS011;7472;45.396;5.272;2023-07-31T08:19:22;2.83;;;1.73;;
14760;SDS011;7472;45.396;5.272;2023-07-31T08:21:51;3.38;;;1.92;;
14760;SDS011;7472;45.396;5.272;2023-07-31T08:24:19;2.72;;;1.95;;
14760;SDS011;7472;45.396;5.272;2023-07-31T08:26:46;5.65;;;1.60;;
14760;SDS011;7472;45.396;5.272;2023-07-31T08:29:14;6.13;;;1.80;;
14760;SDS011;7472;45.396;5.272;2023-07-31T08:31:41;3.20;;;1.70;;
14760;SDS011;7472;45.396;5.272;2023-07-31T08:34:09;4.75;;;2.22;;
14760;SDS011;7472;45.396;5.272;2023-07-31T08:36:36;6.20;;;2.00;;
14760;SDS011;7472;45.396;5.272;2023-07-31T08:39:05;2.75;;;2.10;;
14760;SDS011;7472;45.396;5.272;2023-07-31T08:41:37;3.33;;;1.65;;
14760;SDS011;7472;45.396;5.272;2023-07-31T08:44:05;4.00;;;1.70;;
14760;SDS011;7472;45.396;5.272;2023-07-31T08:46:32;4.82;;;2.10;;
14760;SDS011;7472;45.396;5.272;2023-07-31T08:49:00;4.07;;;1.70;;
14760;SDS011;7472;45.396;5.272;2023-07-31T08:51:31;4.28;;;2.05;;
14760;SDS011;7472;45.396;5.272;2023-07-31T08:53:59;3.58;;;1.70;;
14760;SDS011;7472;45.396;5.272;2023-07-31T08:56:30;4.90;;;1.80;;
14760;SDS011;7472;45.396;5.272;2023-07-31T08:58:58;4.40;;;2.10;;
14760;SDS011;7472;45.396;5.272;2023-07-31T09:01:27;3.78;;;1.92;;
14760;SDS011;7472;45.396;5.272;2023-07-31T09:03:57;2.78;;;1.60;;
14760;SDS011;7472;45.396;5.272;2023-07-31T09:06:27;4.38;;;1.75;;
14760;SDS011;7472;45.396;5.272;2023-07-31T09:08:55;3.58;;;2.22;;
14760;SDS011;7472;45.396;5.272;2023-07-31T09:11:25;4.55;;;2.08;;
14760;SDS011;7472;45.396;5.272;2023-07-31T09:13:54;4.00;;;1.88;;
14760;SDS011;7472;45.396;5.272;2023-07-31T09:16:27;4.00;;;2.13;;
14760;SDS011;7472;45.396;5.272;2023-07-31T09:18:55;5.38;;;2.78;;
14760;SDS011;7472;45.396;5.272;2023-07-31T09:21:23;2.72;;;1.77;;
14760;SDS011;7472;45.396;5.272;2023-07-31T09:23:53;3.92;;;1.67;;
14760;SDS011;7472;45.396;5.272;2023-07-31T09:26:30;3.88;;;1.73;;
14760;SDS011;7472;45.396;5.272;2023-07-31T09:28:59;4.20;;;2.00;;
14760;SDS011;7472;45.396;5.272;2023-07-31T09:31:33;3.95;;;2.00;;
14760;SDS011;7472;45.396;5.272;2023-07-31T09:34:05;5.35;;;2.30;;
14760;SDS011;7472;45.396;5.272;2023-07-31T09:36:32;4.85;;;1.80;;
14760;SDS011;7472;45.396;5.272;2023-07-31T09:39:02;5.53;;;1.85;;
14760;SDS011;7472;45.396;5.272;2023-07-31T09:41:30;6.35;;;2.30;;
14760;SDS011;7472;45.396;5.272;2023-07-31T09:43:59;4.38;;;2.05;;
14760;SDS011;7472;45.396;5.272;2023-07-31T09:46:26;5.00;;;2.17;;
14760;SDS011;7472;45.396;5.272;2023-07-31T09:49:02;3.45;;;1.90;;
14760;SDS011;7472;45.396;5.272;2023-07-31T09:51:30;4.13;;;1.88;;
14760;SDS011;7472;45.396;5.272;2023-07-31T09:53:57;4.28;;;1.88;;
14760;SDS011;7472;45.396;5.272;2023-07-31T09:56:25;4.97;;;2.53;;
14760;SDS011;7472;45.396;5.272;2023-07-31T09:58:52;2.25;;;1.67;;
14760;SDS011;7472;45.396;5.272;2023-07-31T10:01:22;5.45;;;2.08;;
14760;SDS011;7472;45.396;5.272;2023-07-31T10:03:49;3.55;;;2.08;;
14760;SDS011;7472;45.396;5.272;2023-07-31T10:06:17;3.72;;;1.77;;
14760;SDS011;7472;45.396;5.272;2023-07-31T10:08:45;4.55;;;1.88;;
14760;SDS011;7472;45.396;5.272;2023-07-31T10:11:13;8.93;;;2.25;;
14760;SDS011;7472;45.396;5.272;2023-07-31T10:13:41;3.03;;;1.27;;
14760;SDS011;7472;45.396;5.272;2023-07-31T10:16:09;3.92;;;2.10;;
14760;SDS011;7472;45.396;5.272;2023-07-31T10:18:39;3.28;;;1.88;;
14760;SDS011;7472;45.396;5.272;2023-07-31T10:21:07;3.53;;;2.00;;
14760;SDS011;7472;45.396;5.272;2023-07-31T10:23:34;3.40;;;1.73;;
14760;SDS011;7472;45.396;5.272;2023-07-31T10:26:04;6.35;;;2.13;;
14760;SDS011;7472;45.396;5.272;2023-07-31T10:28:32;3.33;;;1.77;;
14760;SDS011;7472;45.396;5.272;2023-07-31T10:31:01;4.07;;;2.42;;
14760;SDS011;7472;45.396;5.272;2023-07-31T10:33:28;5.20;;;1.92;;
14760;SDS011;7472;45.396;5.272;2023-07-31T10:38:40;4.97;;;1.80;;
14760;SDS011;7472;45.396;5.272;2023-07-31T10:41:08;4.30;;;1.95;;
14760;SDS011;7472;45.396;5.272;2023-07-31T10:43:36;4.25;;;2.00;;
14760;SDS011;7472;45.396;5.272;2023-07-31T10:46:06;4.47;;;1.80;;
14760;SDS011;7472;45.396;5.272;2023-07-31T10:48:34;3.83;;;2.05;;
14760;SDS011;7472;45.396;5.272;2023-07-31T10:51:06;4.38;;;1.85;;
14760;SDS011;7472;45.396;5.272;2023-07-31T10:53:35;4.45;;;2.00;;
14760;SDS011;7472;45.396;5.272;2023-07-31T10:56:05;2.10;;;1.55;;
14760;SDS011;7472;45.396;5.272;2023-07-31T10:58:33;2.42;;;1.67;;
14760;SDS011;7472;45.396;5.272;2023-07-31T11:01:01;4.22;;;2.00;;
14760;SDS011;7472;45.396;5.272;2023-07-31T11:03:42;3.97;;;1.80;;
14760;SDS011;7472;45.396;5.272;2023-07-31T11:06:10;4.90;;;1.75;;
14760;SDS011;7472;45.396;5.272;2023-07-31T11:08:41;3.80;;;2.10;;
14760;SDS011;7472;45.396;5.272;2023-07-31T11:11:11;4.65;;;1.73;;
14760;SDS011;7472;45.396;5.272;2023-07-31T11:13:39;5.03;;;2.30;;
14760;SDS011;7472;45.396;5.272;2023-07-31T11:16:07;7.13;;;1.98;;
14760;SDS011;7472;45.396;5.272;2023-07-31T11:18:35;3.08;;;1.90;;
14760;SDS011;7472;45.396;5.272;2023-07-31T11:21:05;3.88;;;1.88;;
14760;SDS011;7472;45.396;5.272;2023-07-31T11:23:33;3.78;;;2.15;;
14760;SDS011;7472;45.396;5.272;2023-07-31T11:26:00;3.75;;;1.80;;
14760;SDS011;7472;45.396;5.272;2023-07-31T11:28:32;4.63;;;2.33;;
14760;SDS011;7472;45.396;5.272;2023-07-31T11:31:00;5.82;;;1.95;;
14760;SDS011;7472;45.396;5.272;2023-07-31T11:33:27;4.25;;;1.85;;
14760;SDS011;7472;45.396;5.272;2023-07-31T11:35:55;3.25;;;1.77;;
14760;SDS011;7472;45.396;5.272;2023-07-31T11:38:22;2.33;;;1.85;;
14760;SDS011;7472;45.396;5.272;2023-07-31T11:40:50;2.78;;;1.73;;
14760;SDS011;7472;45.396;5.272;2023-07-31T11:43:18;3.58;;;2.10;;
14760;SDS011;7472;45.396;5.272;2023-07-31T11:45:48;2.75;;;1.90;;
14760;SDS011;7472;45.396;5.272;2023-07-31T11:48:20;4.22;;;1.95;;
14760;SDS011;7472;45.396;5.272;2023-07-31T11:50:48;3.90;;;1.85;;
14760;SDS011;7472;45.396;5.272;2023-07-31T11:53:16;3.10;;;1.90;;
14760;SDS011;7472;45.396;5.272;2023-07-31T11:55:44;4.55;;;1.98;;
14760;SDS011;7472;45.396;5.272;2023-07-31T11:58:13;3.38;;;1.92;;
14760;SDS011;7472;45.396;5.272;2023-07-31T12:00:41;3.95;;;1.73;;
14760;SDS011;7472;45.396;5.272;2023-07-31T12:03:10;5.13;;;2.30;;
14760;SDS011;7472;45.396;5.272;2023-07-31T12:05:38;3.00;;;1.75;;
14760;SDS011;7472;45.396;5.272;2023-07-31T12:08:08;2.60;;;1.45;;
14760;SDS011;7472;45.396;5.272;2023-07-31T12:10:37;2.63;;;1.95;;
14760;SDS011;7472;45.396;5.272;2023-07-31T12:13:07;2.75;;;1.50;;
14760;SDS011;7472;45.396;5.272;2023-07-31T12:15:38;5.38;;;2.17;;
14760;SDS011;7472;45.396;5.272;2023-07-31T12:18:07;3.95;;;1.85;;
14760;SDS011;7472;45.396;5.272;2023-07-31T12:20:39;2.78;;;1.73;;
14760;SDS011;7472;45.396;5.272;2023-07-31T12:23:07;4.13;;;1.90;;
14760;SDS011;7472;45.396;5.272;2023-07-31T12:25:34;3.20;;;2.00;;
14760;SDS011;7472;45.396;5.272;2023-07-31T12:28:05;5.05;;;1.98;;
14760;SDS011;7472;45.396;5.272;2023-07-31T12:30:36;2.67;;;1.77;;
14760;SDS011;7472;45.396;5.272;2023-07-31T12:33:04;3.70;;;1.67;;
14760;SDS011;7472;45.396;5.272;2023-07-31T12:35:37;3.35;;;1.65;;
14760;SDS011;7472;45.396;5.272;2023-07-31T12:38:04;2.70;;;2.05;;
14760;SDS011;7472;45.396;5.272;2023-07-31T12:40:32;2.72;;;1.55;;
14760;SDS011;7472;45.396;5.272;2023-07-31T12:43:02;2.58;;;1.80;;
14760;SDS011;7472;45.396;5.272;2023-07-31T12:45:30;5.80;;;2.47;;
14760;SDS011;7472;45.396;5.272;2023-07-31T12:47:57;2.85;;;1.60;;
14760;SDS011;7472;45.396;5.272;2023-07-31T12:50:24;2.30;;;1.65;;
14760;SDS011;7472;45.396;5.272;2023-07-31T12:52:54;6.70;;;2.10;;
14760;SDS011;7472;45.396;5.272;2023-07-31T12:55:21;2.90;;;1.92;;
14760;SDS011;7472;45.396;5.272;2023-07-31T12:57:49;3.15;;;1.92;;
14760;SDS011;7472;45.396;5.272;2023-07-31T13:00:16;5.95;;;2.00;;
14760;SDS011;7472;45.396;5.272;2023-07-31T13:02:43;3.22;;;2.17;;
14760;SDS011;7472;45.396;5.272;2023-07-31T13:05:11;4.47;;;2.05;;
14760;SDS011;7472;45.396;5.272;2023-07-31T13:07:39;2.00;;;1.80;;
14760;SDS011;7472;45.396;5.272;2023-07-31T13:10:08;3.10;;;2.40;;
14760;SDS011;7472;45.396;5.272;2023-07-31T13:12:36;3.47;;;2.00;;
14760;SDS011;7472;45.396;5.272;2023-07-31T13:15:03;3.42;;;2.78;;
14760;SDS011;7472;45.396;5.272;2023-07-31T13:17:31;2.85;;;1.88;;
14760;SDS011;7472;45.396;5.272;2023-07-31T13:19:58;3.25;;;2.67;;
14760;SDS011;7472;45.396;5.272;2023-07-31T13:22:26;5.63;;;2.63;;
14760;SDS011;7472;45.396;5.272;2023-07-31T13:24:53;3.45;;;1.95;;
14760;SDS011;7472;45.396;5.272;2023-07-31T13:27:22;3.10;;;2.15;;
14760;SDS011;7472;45.396;5.272;2023-07-31T13:29:49;3.38;;;2.17;;
14760;SDS011;7472;45.396;5.272;2023-07-31T13:32:17;3.63;;;1.88;;
14760;SDS011;7472;45.396;5.272;2023-07-31T13:34:45;2.53;;;2.00;;
14760;SDS011;7472;45.396;5.272;2023-07-31T13:37:13;3.45;;;2.05;;
14760;SDS011;7472;45.396;5.272;2023-07-31T13:39:41;2.63;;;2.35;;
14760;SDS011;7472;45.396;5.272;2023-07-31T13:42:10;6.30;;;2.65;;
14760;SDS011;7472;45.396;5.272;2023-07-31T13:44:39;4.35;;;2.95;;
14760;SDS011;7472;45.396;5.272;2023-07-31T13:47:07;5.70;;;3.08;;
14760;SDS011;7472;45.396;5.272;2023-07-31T13:49:38;4.43;;;3.40;;
14760;SDS011;7472;45.396;5.272;2023-07-31T13:52:07;4.90;;;3.83;;
14760;SDS011;7472;45.396;5.272;2023-07-31T13:54:35;5.28;;;4.03;;
14760;SDS011;7472;45.396;5.272;2023-07-31T13:57:03;4.90;;;4.10;;
14760;SDS011;7472;45.396;5.272;2023-07-31T13:59:30;3.75;;;3.08;;
14760;SDS011;7472;45.396;5.272;2023-07-31T14:01:59;5.53;;;3.50;;
14760;SDS011;7472;45.396;5.272;2023-07-31T14:07:20;3.78;;;3.42;;
14760;SDS011;7472;45.396;5.272;2023-07-31T14:09:48;4.60;;;3.38;;
14760;SDS011;7472;45.396;5.272;2023-07-31T14:12:16;5.85;;;3.30;;
14760;SDS011;7472;45.396;5.272;2023-07-31T14:14:43;4.35;;;3.40;;
14760;SDS011;7472;45.396;5.272;2023-07-31T14:17:13;4.00;;;2.97;;
14760;SDS011;7472;45.396;5.272;2023-07-31T14:19:41;4.95;;;3.75;;
14760;SDS011;7472;45.396;5.272;2023-07-31T14:22:09;4.70;;;3.20;;
14760;SDS011;7472;45.396;5.272;2023-07-31T14:24:37;4.07;;;3.30;;
14760;SDS011;7472;45.396;5.272;2023-07-31T14:27:07;4.20;;;3.40;;
14760;SDS011;7472;45.396;5.272;2023-07-31T14:29:35;6.18;;;3.67;;
14760;SDS011;7472;45.396;5.272;2023-07-31T14:32:02;4.03;;;3.45;;
14760;SDS011;7472;45.396;5.272;2023-07-31T14:34:32;5.70;;;3.53;;
14760;SDS011;7472;45.396;5.272;2023-07-31T14:37:00;7.38;;;3.85;;
14760;SDS011;7472;45.396;5.272;2023-07-31T14:39:27;5.03;;;3.70;;
14760;SDS011;7472;45.396;5.272;2023-07-31T14:41:55;4.30;;;3.90;;
14760;SDS011;7472;45.396;5.272;2023-07-31T14:44:23;4.55;;;3.50;;
14760;SDS011;7472;45.396;5.272;2023-07-31T14:46:51;5.63;;;4.07;;
14760;SDS011;7472;45.396;5.272;2023-07-31T14:49:18;5.55;;;3.80;;
14760;SDS011;7472;45.396;5.272;2023-07-31T14:51:47;4.20;;;3.60;;
14760;SDS011;7472;45.396;5.272;2023-07-31T14:54:15;4.13;;;3.00;;
14760;SDS011;7472;45.396;5.272;2023-07-31T14:56:43;3.95;;;3.45;;
14760;SDS011;7472;45.396;5.272;2023-07-31T14:59:11;4.35;;;3.50;;
14760;SDS011;7472;45.396;5.272;2023-07-31T15:01:44;4.45;;;3.47;;
14760;SDS011;7472;45.396;5.272;2023-07-31T15:04:15;6.85;;;3.35;;
14760;SDS011;7472;45.396;5.272;2023-07-31T15:06:46;4.22;;;3.17;;
14760;SDS011;7472;45.396;5.272;2023-07-31T15:09:37;4.28;;;3.08;;
14760;SDS011;7472;45.396;5.272;2023-07-31T15:12:09;4.18;;;3.47;;